createdAt,value
2019-03-30T00:00:44.478Z,3.97
2019-03-30T00:05:49.343Z,4.50
2019-03-30T00:10:54.127Z,3.83
2019-03-30T00:15:59.071Z,4.03
2019-03-30T00:21:03.586Z,4.10
2019-03-30T00:26:09.379Z,3.63
2019-03-30T00:31:14.482Z,4.13
2019-03-30T00:36:20.179Z,4.90
2019-03-30T00:41:24.987Z,3.87
2019-03-30T00:46:29.425Z,5.40
2019-03-30T00:51:33.919Z,3.57
2019-03-30T00:56:38.708Z,4.87
2019-03-30T01:01:43.487Z,4.60
2019-03-30T01:06:48.032Z,5.60
2019-03-30T01:11:52.794Z,5.73
2019-03-30T01:16:57.242Z,4.80
2019-03-30T01:22:01.750Z,5.67
2019-03-30T01:27:06.938Z,4.83
2019-03-30T01:32:12.079Z,4.30
2019-03-30T01:37:16.890Z,4.97
2019-03-30T01:42:21.979Z,5.40
2019-03-30T01:47:26.563Z,4.50
2019-03-30T01:52:31.354Z,5.27
2019-03-30T01:57:35.995Z,5.30
2019-03-30T02:02:40.516Z,5.70
2019-03-30T02:07:45.706Z,4.70
2019-03-30T02:12:50.843Z,4.90
2019-03-30T02:17:55.391Z,5.83
2019-03-30T02:23:00.456Z,4.93
2019-03-30T02:28:06.888Z,4.87
2019-03-30T02:33:11.449Z,3.80
2019-03-30T02:38:16.234Z,4.80
2019-03-30T02:43:20.627Z,4.77
2019-03-30T02:48:25.389Z,4.43
2019-03-30T02:53:29.788Z,5.37
2019-03-30T02:58:34.376Z,5.10
2019-03-30T03:03:38.957Z,4.63
2019-03-30T03:08:43.456Z,6.13
2019-03-30T03:13:49.044Z,5.97
2019-03-30T03:18:53.513Z,5.97
2019-03-30T03:23:58.224Z,6.00
2019-03-30T03:29:02.667Z,6.43
2019-03-30T03:34:07.067Z,6.10
2019-03-30T03:39:11.841Z,5.93
2019-03-30T03:44:16.647Z,5.87
2019-03-30T03:49:21.113Z,5.90
2019-03-30T03:54:25.771Z,6.00
2019-03-30T03:59:31.655Z,6.13
2019-03-30T04:04:38.763Z,6.27
2019-03-30T04:09:47.708Z,6.50
2019-03-30T04:14:54.917Z,5.30
2019-03-30T04:19:59.660Z,6.23
2019-03-30T04:25:04.674Z,5.93
2019-03-30T04:30:09.451Z,5.40
2019-03-30T04:35:13.831Z,5.40
2019-03-30T04:40:18.320Z,5.33
2019-03-30T04:45:22.817Z,6.33
2019-03-30T04:50:27.596Z,6.20
2019-03-30T04:55:31.973Z,5.90
2019-03-30T05:00:36.427Z,6.40
2019-03-30T05:05:43.286Z,6.37
2019-03-30T05:10:47.890Z,6.23
2019-03-30T05:15:52.550Z,6.00
2019-03-30T05:20:56.930Z,6.57
2019-03-30T05:26:02.066Z,7.00
2019-03-30T05:31:06.600Z,7.00
2019-03-30T05:36:11.174Z,6.90
2019-03-30T05:41:15.567Z,5.60
2019-03-30T05:46:20.007Z,7.27
2019-03-30T05:51:24.405Z,7.77
2019-03-30T05:56:29.087Z,6.60
2019-03-30T06:01:34.035Z,6.80
2019-03-30T06:06:38.849Z,7.47
2019-03-30T06:11:43.863Z,6.57
2019-03-30T06:16:48.579Z,6.73
2019-03-30T06:21:53.428Z,7.07
2019-03-30T06:26:58.167Z,6.70
2019-03-30T06:32:03.020Z,7.43
2019-03-30T06:37:07.765Z,7.40
2019-03-30T06:42:12.511Z,8.37
2019-03-30T06:47:16.918Z,7.93
2019-03-30T06:52:21.999Z,8.20
2019-03-30T06:57:26.522Z,8.63
2019-03-30T07:02:30.942Z,10.03
2019-03-30T07:07:37.215Z,9.43
2019-03-30T07:12:42.499Z,9.97
2019-03-30T07:17:47.971Z,8.10
2019-03-30T07:22:52.731Z,9.80
2019-03-30T07:27:57.776Z,8.43
2019-03-30T07:33:02.831Z,9.80
2019-03-30T07:38:07.576Z,10.27
2019-03-30T07:43:12.211Z,10.57
2019-03-30T07:48:17.072Z,10.93
2019-03-30T07:53:26.691Z,10.40
2019-03-30T07:58:28.631Z,11.40
2019-03-30T08:03:33.372Z,10.47
2019-03-30T08:08:37.871Z,10.73
2019-03-30T08:13:42.639Z,11.10
2019-03-30T08:18:47.026Z,10.07
2019-03-30T08:23:52.031Z,10.80
2019-03-30T08:28:56.683Z,11.10
2019-03-30T08:34:01.374Z,11.27
2019-03-30T08:39:07.422Z,9.10
2019-03-30T08:44:11.907Z,10.87
2019-03-30T08:49:16.694Z,9.20
2019-03-30T08:54:21.416Z,9.50
2019-03-30T08:59:26.224Z,8.30
2019-03-30T09:04:31.374Z,8.97
2019-03-30T09:09:36.695Z,8.33
2019-03-30T09:14:41.736Z,8.97
2019-03-30T09:19:46.219Z,8.20
2019-03-30T09:24:50.926Z,8.37
2019-03-30T09:29:55.346Z,8.13
2019-03-30T09:34:59.744Z,7.00
2019-03-30T09:40:04.659Z,6.90
2019-03-30T09:45:09.624Z,7.43
2019-03-30T09:50:14.938Z,7.13
2019-03-30T09:55:19.424Z,6.97
2019-03-30T10:00:24.239Z,7.97
2019-03-30T10:05:29.087Z,5.70
2019-03-30T10:10:33.477Z,7.27
2019-03-30T10:15:38.334Z,7.37
2019-03-30T10:20:43.012Z,8.83
2019-03-30T10:25:47.504Z,9.03
2019-03-30T10:30:51.964Z,10.70
2019-03-30T10:35:56.358Z,12.23
2019-03-30T10:41:00.738Z,13.73
2019-03-30T10:46:06.447Z,9.97
2019-03-30T10:51:11.175Z,9.20
2019-03-30T10:56:16.030Z,10.40
2019-03-30T11:01:20.517Z,10.23
2019-03-30T11:06:25.325Z,10.97
2019-03-30T11:11:30.059Z,9.77
2019-03-30T11:16:34.446Z,9.80
2019-03-30T11:21:38.931Z,11.03
2019-03-30T11:26:44.247Z,7.73
2019-03-30T11:31:48.806Z,7.40
2019-03-30T11:36:53.622Z,7.70
2019-03-30T11:41:58.482Z,7.37
2019-03-30T11:47:03.373Z,9.20
2019-03-30T11:52:07.847Z,7.10
2019-03-30T11:57:12.317Z,7.40
2019-03-30T12:02:27.194Z,7.53
2019-03-30T12:07:23.239Z,8.60
2019-03-30T12:12:27.687Z,8.23
2019-03-30T12:17:32.385Z,8.10
2019-03-30T12:22:37.111Z,8.47
2019-03-30T12:27:41.780Z,7.90
2019-03-30T12:32:46.911Z,9.07
2019-03-30T12:37:51.958Z,7.87
2019-03-30T12:42:56.701Z,6.80
2019-03-30T12:48:01.251Z,8.90
2019-03-30T12:53:06.010Z,7.77
2019-03-30T12:58:10.731Z,7.50
2019-03-30T13:03:15.391Z,11.93
2019-03-30T13:08:21.459Z,12.13
2019-03-30T13:13:26.242Z,11.63
2019-03-30T13:18:31.051Z,11.67
2019-03-30T13:23:35.475Z,10.27
2019-03-30T13:28:40.236Z,10.20
2019-03-30T13:33:44.627Z,9.00
2019-03-30T13:38:49.127Z,8.67
2019-03-30T13:43:54.059Z,8.10
2019-03-30T13:48:58.806Z,8.30
2019-03-30T13:54:03.288Z,9.03
2019-03-30T13:59:07.994Z,9.47
2019-03-30T14:04:12.737Z,9.80
2019-03-30T14:09:17.508Z,8.30
2019-03-30T14:14:22.222Z,9.10
2019-03-30T14:19:26.698Z,7.90
2019-03-30T14:24:31.511Z,8.90
2019-03-30T14:29:36.210Z,8.33
2019-03-30T14:34:40.910Z,7.87
2019-03-30T14:39:45.318Z,8.30
2019-03-30T14:44:49.749Z,8.07
2019-03-30T14:49:54.146Z,8.50
2019-03-30T14:54:58.551Z,8.03
2019-03-30T15:00:03.803Z,8.40
2019-03-30T15:05:09.119Z,8.07
2019-03-30T15:10:13.620Z,7.70
2019-03-30T15:15:18.166Z,7.97
2019-03-30T15:20:23.636Z,8.20
2019-03-30T15:25:28.592Z,7.87
2019-03-30T15:30:34.040Z,7.97
2019-03-30T15:35:39.038Z,8.33
2019-03-30T15:40:44.128Z,8.30
2019-03-30T15:45:48.914Z,7.57
2019-03-30T15:50:54.095Z,6.93
2019-03-30T15:55:58.775Z,7.20
2019-03-30T16:01:03.519Z,6.83
2019-03-30T16:06:08.990Z,7.23
2019-03-30T16:11:13.534Z,7.37
2019-03-30T16:16:18.279Z,7.20
2019-03-30T16:21:23.010Z,7.73
2019-03-30T16:26:41.420Z,4.87
2019-03-30T16:31:33.862Z,9.47
2019-03-30T16:36:38.307Z,9.30
2019-03-30T16:41:43.035Z,10.03
2019-03-30T16:46:48.067Z,12.93
2019-03-30T16:51:53.023Z,14.93
2019-03-30T16:56:57.969Z,15.23
2019-03-30T17:02:02.718Z,15.03
2019-03-30T17:07:08.043Z,14.10
2019-03-30T17:12:12.923Z,13.77
2019-03-30T17:17:17.981Z,15.67
2019-03-30T17:22:22.461Z,17.17
2019-03-30T17:27:28.458Z,17.70
2019-03-30T17:32:33.669Z,15.23
2019-03-30T17:37:38.470Z,12.93
2019-03-30T17:42:43.049Z,16.20
2019-03-30T17:47:47.874Z,14.40
2019-03-30T17:52:52.611Z,14.47
2019-03-30T17:58:11.914Z,14.33
2019-03-30T18:03:05.123Z,13.43
2019-03-30T18:08:09.558Z,12.43
2019-03-30T18:13:14.374Z,12.37
2019-03-30T18:18:18.855Z,11.43
2019-03-30T18:23:23.664Z,10.60
2019-03-30T18:28:28.158Z,10.57
2019-03-30T18:33:32.854Z,12.30
2019-03-30T18:38:39.003Z,10.90
2019-03-30T18:43:43.750Z,10.10
2019-03-30T18:48:48.838Z,11.30
2019-03-30T18:53:54.354Z,11.00
2019-03-30T18:58:59.116Z,11.23
2019-03-30T19:04:03.742Z,11.97
2019-03-30T19:09:08.810Z,12.13
2019-03-30T19:14:13.716Z,13.03
2019-03-30T19:19:19.039Z,13.40
2019-03-30T19:24:23.739Z,12.13
2019-03-30T19:29:28.433Z,12.97
2019-03-30T19:34:33.223Z,14.03
2019-03-30T19:39:38.410Z,14.53
2019-03-30T19:44:43.497Z,14.47
2019-03-30T19:49:47.922Z,15.80
2019-03-30T19:54:52.403Z,14.30
2019-03-30T19:59:56.843Z,14.47
2019-03-30T20:05:01.544Z,15.33
2019-03-30T20:10:06.870Z,14.60
2019-03-30T20:15:11.958Z,15.23
2019-03-30T20:20:16.939Z,15.60
2019-03-30T20:25:21.410Z,16.10
2019-03-30T20:30:26.181Z,16.07
2019-03-30T20:35:31.038Z,15.37
2019-03-30T20:40:35.636Z,15.60
2019-03-30T20:45:40.747Z,14.90
2019-03-30T20:50:45.550Z,16.13
2019-03-30T20:55:50.234Z,16.20
2019-03-30T21:00:54.936Z,14.97
2019-03-30T21:05:59.332Z,15.70
2019-03-30T21:11:03.811Z,16.10
2019-03-30T21:16:08.636Z,16.70
2019-03-30T21:21:13.346Z,15.37
2019-03-30T21:26:18.611Z,15.90
2019-03-30T21:31:23.015Z,16.10
2019-03-30T21:36:27.887Z,14.10
2019-03-30T21:41:32.299Z,14.60
2019-03-30T21:46:37.474Z,13.77
2019-03-30T21:51:41.882Z,14.50
2019-03-30T21:56:46.659Z,15.77
2019-03-30T22:01:51.712Z,16.10
2019-03-30T22:06:56.478Z,14.70
2019-03-30T22:12:01.393Z,15.70
2019-03-30T22:17:06.563Z,13.57
2019-03-30T22:22:11.039Z,13.70
2019-03-30T22:27:15.748Z,13.90
2019-03-30T22:32:20.551Z,12.70
2019-03-30T22:37:25.114Z,13.07
2019-03-30T22:42:29.527Z,14.20
2019-03-30T22:47:34.627Z,14.47
2019-03-30T22:52:39.101Z,13.83
2019-03-30T22:57:43.563Z,14.90
2019-03-30T23:02:48.059Z,14.07
2019-03-30T23:07:53.038Z,14.60
2019-03-30T23:12:57.512Z,13.03
2019-03-30T23:18:02.068Z,11.83
2019-03-30T23:23:06.828Z,13.57
2019-03-30T23:28:11.251Z,11.90
2019-03-30T23:33:16.004Z,14.10
2019-03-30T23:38:20.465Z,12.87
2019-03-30T23:43:24.922Z,14.27
2019-03-30T23:48:29.357Z,13.20
2019-03-30T23:53:33.784Z,12.47
2019-03-30T23:58:38.699Z,13.70
